Sanator, South Dakota
Current Conditions -  °F | °C
As of 8:53 PM on Tuesday 21 Oct 2014 (Local Time) from KCUT Reporting Station
Clear Clear  
Wind Chill: 59°   Ceiling: Unl
Heat Index: 59°   Visibility: 10mi
Dew Point: 39°   Wind: 8mph
Humidity: 48%   Direction: 220°SW
Pressure: 29.9"   Gusts: NA
Location:  43.6653°N, 103.766°W
Report Text: KCUT 220253Z AUTO 22007KT 10SM CLR 15/04 A2990 RMK AO2 SLP068 T01500039 51008
Loading
Personal Weather Stations






























Interactive Weather Map
Tropical Storm Tracking
New forecast layout! Learn more

10-Day Weather Forecast

Advertisements
Track Severe Weather on mobile